Station Historical Data
Daily Summary for April 20, 2012 Units:  English    Metric   Both
« Previous Day
Next Day »
Daily Weekly Monthly Yearly Custom
  High: Low: Average:
Temperature: 75.3 °F 55.0 °F 64.2 °F
Dew Point: 63.8 °F 53.6 °F 57.8 °F
Humidity: 95% 52% 81%
Wind Speed: 11.0mph 0.0mph 3.4mph
Wind Gust: 13.0mph - -
Wind- - SSE
Pressure: 29.89 in 29.73 in -
Precipitation: 0.00 in    
Historical Graphs
 
 
Tabular Data for April 20, 2012
Time Temperature Dew Point Pressure Wind Wind Speed Wind Gust Humidity Rainfall Rate (Hourly) Conditions
00:00 62.2 °F 55.6 °F 29.88 in ESE 3.0 mph 4.0 mph 79% 0.00 in
00:03 62.0 °F 55.4 °F 29.88 in SE 3.0 mph 5.0 mph 79% 0.00 in
00:08 61.8 °F 55.6 °F 29.88 in ESE 2.0 mph 4.0 mph 80% 0.00 in
00:13 61.5 °F 55.3 °F 29.88 in ESE 3.0 mph 4.0 mph 80% 0.00 in
00:18 61.3 °F 55.4 °F 29.88 in SE 3.0 mph 5.0 mph 81% 0.00 in
00:23 61.3 °F 55.8 °F 29.88 in ESE 3.0 mph 5.0 mph 82% 0.00 in
00:28 61.3 °F 55.8 °F 29.88 in ESE 4.0 mph 4.0 mph 82% 0.00 in
00:33 61.2 °F 56.0 °F 29.87 in ESE 4.0 mph 6.0 mph 83% 0.00 in
00:39 61.1 °F 55.9 °F 29.87 in SE 5.0 mph 5.0 mph 83% 0.00 in
00:44 61.2 °F 56.0 °F 29.87 in SE 2.0 mph 5.0 mph 83% 0.00 in
00:49 61.2 °F 56.3 °F 29.87 in SE 3.0 mph 6.0 mph 84% 0.00 in
00:54 61.0 °F 56.1 °F 29.87 in ESE 2.0 mph 4.0 mph 84% 0.00 in
00:59 61.2 °F 56.3 °F 29.87 in ESE 4.0 mph 6.0 mph 84% 0.00 in
01:04 61.2 °F 56.3 °F 29.87 in ESE 3.0 mph 5.0 mph 84% 0.00 in
01:09 61.0 °F 56.5 °F 29.87 in ESE 3.0 mph 5.0 mph 85% 0.00 in
01:14 60.7 °F 56.2 °F 29.87 in ESE 4.0 mph 5.0 mph 85% 0.00 in
01:19 60.5 °F 56.0 °F 29.87 in SE 3.0 mph 5.0 mph 85% 0.00 in
01:24 60.2 °F 56.0 °F 29.87 in SE 3.0 mph 4.0 mph 86% 0.00 in
01:29 60.0 °F 55.8 °F 29.87 in ESE 3.0 mph 4.0 mph 86% 0.00 in
01:34 59.9 °F 56.0 °F 29.87 in SE 2.0 mph 4.0 mph 87% 0.00 in
01:39 60.0 °F 56.1 °F 29.87 in ESE 4.0 mph 6.0 mph 87% 0.00 in
01:44 60.1 °F 56.2 °F 29.87 in SE 3.0 mph 5.0 mph 87% 0.00 in
01:49 60.0 °F 56.4 °F 29.87 in SE 4.0 mph 5.0 mph 88% 0.00 in
01:54 59.9 °F 56.3 °F 29.86 in SE 4.0 mph 4.0 mph 88% 0.00 in
01:59 59.8 °F 56.2 °F 29.87 in SSE 2.0 mph 3.0 mph 88% 0.00 in
02:04 59.6 °F 56.4 °F 29.86 in SE 3.0 mph 4.0 mph 89% 0.00 in
02:09 59.5 °F 56.3 °F 29.86 in SE 2.0 mph 3.0 mph 89% 0.00 in
02:14 59.1 °F 55.9 °F 29.86 in SE 3.0 mph 3.0 mph 89% 0.00 in
02:19 59.0 °F 56.1 °F 29.86 in SE 3.0 mph 3.0 mph 90% 0.00 in
02:24 59.1 °F 56.2 °F 29.85 in SE 3.0 mph 4.0 mph 90% 0.00 in
02:29 59.0 °F 56.1 °F 29.85 in SE 2.0 mph 4.0 mph 90% 0.00 in
02:34 58.9 °F 56.0 °F 29.85 in ESE 4.0 mph 4.0 mph 90% 0.00 in
02:39 59.0 °F 56.4 °F 29.85 in SE 4.0 mph 5.0 mph 91% 0.00 in
02:44 58.9 °F 56.3 °F 29.85 in SE 2.0 mph 4.0 mph 91% 0.00 in
02:50 58.7 °F 56.1 °F 29.84 in SSE 4.0 mph 4.0 mph 91% 0.00 in
02:55 58.6 °F 56.0 °F 29.84 in SE 2.0 mph 4.0 mph 91% 0.00 in
03:00 58.6 °F 56.3 °F 29.84 in SE 3.0 mph 5.0 mph 92% 0.00 in
03:05 58.6 °F 56.3 °F 29.84 in SE 4.0 mph 5.0 mph 92% 0.00 in
03:10 58.4 °F 56.1 °F 29.84 in SSE 2.0 mph 4.0 mph 92% 0.00 in
03:15 58.4 °F 56.1 °F 29.84 in SE 3.0 mph 5.0 mph 92% 0.00 in
03:20 58.4 °F 56.4 °F 29.84 in SE 2.0 mph 6.0 mph 93% 0.00 in
03:25 58.4 °F 56.4 °F 29.83 in SE 4.0 mph 5.0 mph 93% 0.00 in
03:30 58.5 °F 56.5 °F 29.84 in SE 4.0 mph 5.0 mph 93% 0.00 in
03:35 58.6 °F 56.6 °F 29.83 in SSE 3.0 mph 6.0 mph 93% 0.00 in
03:40 58.6 °F 56.6 °F 29.83 in ESE 6.0 mph 7.0 mph 93% 0.00 in
03:45 58.6 °F 56.6 °F 29.83 in SE 5.0 mph 7.0 mph 93% 0.00 in
03:47 58.6 °F 56.6 °F 29.83 in SE 5.0 mph 6.0 mph 93% 0.00 in
03:52 58.4 °F 56.4 °F 29.83 in SE 6.0 mph 6.0 mph 93% 0.00 in
03:57 58.4 °F 56.4 °F 29.83 in ESE 5.0 mph 5.0 mph 93% 0.00 in
04:02 58.2 °F 56.2 °F 29.83 in SE 2.0 mph 6.0 mph 93% 0.00 in
04:07 58.0 °F 56.0 °F 29.83 in SSE 3.0 mph 6.0 mph 93% 0.00 in
04:12 57.9 °F 55.9 °F 29.83 in SSE 3.0 mph 4.0 mph 93% 0.00 in
04:17 57.9 °F 55.9 °F 29.84 in SSW 2.0 mph 5.0 mph 93% 0.00 in
04:23 57.7 °F 55.7 °F 29.84 in SSE 1.0 mph 4.0 mph 93% 0.00 in
04:28 57.4 °F 55.4 °F 29.83 in SSE 2.0 mph 4.0 mph 93% 0.00 in
04:33 57.2 °F 55.5 °F 29.84 in SE 3.0 mph 4.0 mph 94% 0.00 in
04:38 57.1 °F 55.4 °F 29.84 in SE 3.0 mph 4.0 mph 94% 0.00 in
04:43 57.2 °F 55.5 °F 29.84 in SE 2.0 mph 3.0 mph 94% 0.00 in
04:48 57.2 °F 55.5 °F 29.84 in SE 2.0 mph 4.0 mph 94% 0.00 in
04:53 57.1 °F 55.4 °F 29.84 in SSE 2.0 mph 3.0 mph 94% 0.00 in
04:59 57.0 °F 55.3 °F 29.84 in SSE 2.0 mph 3.0 mph 94% 0.00 in
05:04 56.9 °F 55.2 °F 29.84 in Calm   2.0 mph 94% 0.00 in
05:09 56.8 °F 55.1 °F 29.84 in Calm   2.0 mph 94% 0.00 in
05:14 56.7 °F 55.0 °F 29.84 in Calm   1.0 mph 94% 0.00 in
05:19 56.7 °F 55.0 °F 29.84 in Calm     94% 0.00 in
05:24 56.7 °F 55.0 °F 29.85 in Calm     94% 0.00 in
05:29 56.6 °F 55.2 °F 29.85 in Calm   1.0 mph 95% 0.00 in
05:34 56.6 °F 55.2 °F 29.84 in Calm   1.0 mph 95% 0.00 in
05:39 56.6 °F 55.2 °F 29.84 in Calm   1.0 mph 95% 0.00 in
05:44 56.6 °F 55.2 °F 29.85 in Calm   1.0 mph 95% 0.00 in
05:49 56.5 °F 55.1 °F 29.84 in Calm     95% 0.00 in
05:54 56.4 °F 55.0 °F 29.84 in Calm     95% 0.00 in
05:59 56.3 °F 54.9 °F 29.84 in Calm     95% 0.00 in
06:04 56.2 °F 54.8 °F 29.84 in Calm     95% 0.00 in
06:09 56.0 °F 54.6 °F 29.84 in Calm     95% 0.00 in
06:14 55.9 °F 54.5 °F 29.84 in Calm     95% 0.00 in
06:19 56.0 °F 54.6 °F 29.85 in Calm     95% 0.00 in
06:24 56.1 °F 54.7 °F 29.85 in Calm   1.0 mph 95% 0.00 in
06:29 56.2 °F 54.8 °F 29.85 in Calm   1.0 mph 95% 0.00 in
06:34 56.1 °F 54.7 °F 29.85 in Calm     95% 0.00 in
06:39 55.9 °F 54.5 °F 29.85 in Calm     95% 0.00 in
06:44 55.8 °F 54.4 °F 29.85 in Calm     95% 0.00 in
06:50 55.6 °F 54.2 °F 29.85 in SSE 1.0 mph 1.0 mph 95% 0.00 in
06:55 55.8 °F 54.4 °F 29.85 in ESE 2.0 mph 3.0 mph 95% 0.00 in
07:00 56.3 °F 54.9 °F 29.85 in ESE 2.0 mph 3.0 mph 95% 0.00 in
07:05 56.4 °F 55.0 °F 29.85 in SE 2.0 mph 4.0 mph 95% 0.00 in
07:10 55.9 °F 54.5 °F 29.85 in ESE 3.0 mph 3.0 mph 95% 0.00 in
07:15 55.3 °F 53.9 °F 29.85 in East 2.0 mph 3.0 mph 95% 0.00 in
07:20 55.0 °F 53.6 °F 29.85 in ESE 3.0 mph 3.0 mph 95% 0.00 in
07:25 55.1 °F 53.7 °F 29.85 in East 3.0 mph 3.0 mph 95% 0.00 in
07:30 55.0 °F 53.6 °F 29.85 in ESE 3.0 mph 3.0 mph 95% 0.00 in
07:35 55.0 °F 53.6 °F 29.85 in ESE 3.0 mph 4.0 mph 95% 0.00 in
07:40 55.1 °F 53.7 °F 29.85 in ESE 3.0 mph 4.0 mph 95% 0.00 in
07:45 55.3 °F 53.9 °F 29.85 in ESE 3.0 mph 4.0 mph 95% 0.00 in
07:50 55.5 °F 54.1 °F 29.86 in SE 2.0 mph 4.0 mph 95% 0.00 in
07:56 55.7 °F 54.3 °F 29.86 in ESE 2.0 mph 4.0 mph 95% 0.00 in
08:01 55.9 °F 54.5 °F 29.86 in ESE 2.0 mph 3.0 mph 95% 0.00 in
08:06 56.1 °F 54.7 °F 29.86 in ESE 3.0 mph 3.0 mph 95% 0.00 in
08:11 56.6 °F 55.2 °F 29.86 in SE 2.0 mph 3.0 mph 95% 0.00 in
08:16 57.0 °F 55.6 °F 29.86 in ESE 4.0 mph 4.0 mph 95% 0.00 in
08:21 57.5 °F 56.1 °F 29.86 in ESE 4.0 mph 4.0 mph 95% 0.00 in
08:26 57.8 °F 56.4 °F 29.86 in SE 2.0 mph 5.0 mph 95% 0.00 in
08:31 58.1 °F 56.7 °F 29.87 in SSE 3.0 mph 4.0 mph 95% 0.00 in
08:36 58.2 °F 56.8 °F 29.87 in ESE 4.0 mph 5.0 mph 95% 0.00 in
08:41 58.4 °F 57.0 °F 29.87 in ESE 3.0 mph 5.0 mph 95% 0.00 in
08:46 58.6 °F 57.2 °F 29.87 in ESE 5.0 mph 6.0 mph 95% 0.00 in
08:51 58.7 °F 57.3 °F 29.87 in SE 6.0 mph 6.0 mph 95% 0.00 in
08:56 58.8 °F 57.4 °F 29.87 in SE 4.0 mph 6.0 mph 95% 0.00 in
09:01 59.0 °F 57.6 °F 29.87 in SE 4.0 mph 6.0 mph 95% 0.00 in
09:06 59.1 °F 57.7 °F 29.87 in SSE 3.0 mph 4.0 mph 95% 0.00 in
09:11 59.4 °F 58.0 °F 29.87 in ESE 5.0 mph 6.0 mph 95% 0.00 in
09:16 59.7 °F 58.3 °F 29.87 in SSE 3.0 mph 7.0 mph 95% 0.00 in
09:22 59.9 °F 58.5 °F 29.87 in SE 5.0 mph 7.0 mph 95% 0.00 in
09:27 60.0 °F 58.6 °F 29.87 in South 7.0 mph 7.0 mph 95% 0.00 in
09:32 60.1 °F 58.7 °F 29.87 in SE 5.0 mph 8.0 mph 95% 0.00 in
09:36 60.3 °F 58.9 °F 29.87 in East 7.0 mph 7.0 mph 95% 0.00 in
09:42 60.4 °F 59.0 °F 29.87 in SE 4.0 mph 9.0 mph 95% 0.00 in
09:47 60.6 °F 59.2 °F 29.87 in SE 4.0 mph 7.0 mph 95% 0.00 in
09:52 60.7 °F 59.0 °F 29.87 in ESE 5.0 mph 8.0 mph 94% 0.00 in
09:57 60.8 °F 59.1 °F 29.88 in SSE 5.0 mph 7.0 mph 94% 0.00 in
10:02 60.9 °F 59.2 °F 29.88 in SSE 5.0 mph 7.0 mph 94% 0.00 in
10:07 60.9 °F 59.2 °F 29.88 in SE 5.0 mph 13.0 mph 94% 0.00 in
10:12 61.1 °F 59.4 °F 29.88 in SE 11.0 mph 11.0 mph 94% 0.00 in
10:17 61.2 °F 59.5 °F 29.88 in South 8.0 mph 10.0 mph 94% 0.00 in
10:22 61.3 °F 59.6 °F 29.88 in SE 5.0 mph 9.0 mph 94% 0.00 in
10:27 61.3 °F 59.3 °F 29.88 in SSE 7.0 mph 8.0 mph 93% 0.00 in
10:32 61.3 °F 59.3 °F 29.89 in SSE 7.0 mph 9.0 mph 93% 0.00 in
10:37 61.4 °F 59.4 °F 29.89 in ESE 4.0 mph 6.0 mph 93% 0.00 in
10:42 61.5 °F 59.5 °F 29.89 in SSE 3.0 mph 7.0 mph 93% 0.00 in
10:47 61.6 °F 59.6 °F 29.89 in SSE 7.0 mph 9.0 mph 93% 0.00 in
10:52 61.6 °F 59.6 °F 29.89 in SSE 4.0 mph 6.0 mph 93% 0.00 in
10:53 61.6 °F 59.6 °F 29.89 in SSE 4.0 mph 6.0 mph 93% 0.00 in
10:58 61.9 °F 59.9 °F 29.89 in SSE 4.0 mph 5.0 mph 93% 0.00 in
11:03 61.8 °F 59.8 °F 29.89 in SSE 4.0 mph 4.0 mph 93% 0.00 in
11:08 61.9 °F 59.9 °F 29.89 in SSE 3.0 mph 9.0 mph 93% 0.00 in
11:13 61.9 °F 59.9 °F 29.89 in SSW 4.0 mph 7.0 mph 93% 0.00 in
11:18 62.0 °F 60.0 °F 29.89 in SSE 2.0 mph 7.0 mph 93% 0.00 in
11:23 62.1 °F 60.1 °F 29.89 in South 5.0 mph 6.0 mph 93% 0.00 in
11:28 62.4 °F 60.0 °F 29.89 in SSE 5.0 mph 8.0 mph 92% 0.00 in
11:33 62.7 °F 60.3 °F 29.89 in SSE 6.0 mph 8.0 mph 92% 0.00 in
11:38 62.9 °F 60.5 °F 29.89 in SSE 3.0 mph 5.0 mph 92% 0.00 in
11:43 63.0 °F 60.3 °F 29.89 in SSE 5.0 mph 7.0 mph 91% 0.00 in
11:48 63.3 °F 60.6 °F 29.89 in South 2.0 mph 4.0 mph 91% 0.00 in
11:53 63.6 °F 60.9 °F 29.89 in SW 6.0 mph 6.0 mph 91% 0.00 in
11:58 63.7 °F 61.0 °F 29.89 in South 4.0 mph 6.0 mph 91% 0.00 in
12:03 63.9 °F 60.9 °F 29.89 in SSE 4.0 mph 6.0 mph 90% 0.00 in
12:08 64.1 °F 61.1 °F 29.88 in SSE 3.0 mph 8.0 mph 90% 0.00 in
12:13 64.9 °F 61.9 °F 29.88 in SE 3.0 mph 6.0 mph 90% 0.00 in
12:18 66.0 °F 62.7 °F 29.88 in SE 5.0 mph 8.0 mph 89% 0.00 in
12:23 66.7 °F 62.4 °F 29.87 in SSE 6.0 mph 9.0 mph 86% 0.00 in
12:28 67.3 °F 62.3 °F 29.87 in SSE 4.0 mph 10.0 mph 84% 0.00 in
12:33 67.9 °F 62.5 °F 29.87 in South 6.0 mph 9.0 mph 83% 0.00 in
12:39 67.5 °F 61.8 °F 29.87 in South 7.0 mph 7.0 mph 82% 0.00 in
12:44 67.7 °F 62.0 °F 29.87 in SW 4.0 mph 7.0 mph 82% 0.00 in
12:49 68.1 °F 62.8 °F 29.87 in SE 4.0 mph 6.0 mph 83% 0.00 in
12:54 68.4 °F 62.7 °F 29.87 in SSW 3.0 mph 9.0 mph 82% 0.00 in
12:59 69.0 °F 61.9 °F 29.86 in SSE 5.0 mph 7.0 mph 78% 0.00 in
13:04 69.8 °F 62.6 °F 29.86 in SW 4.0 mph 7.0 mph 78% 0.00 in
13:09 70.5 °F 62.6 °F 29.86 in SW 5.0 mph 7.0 mph 76% 0.00 in
13:14 70.0 °F 61.3 °F 29.86 in South 6.0 mph 6.0 mph 74% 0.00 in
13:15 69.9 °F 61.6 °F 29.86 in SW 3.0 mph 6.0 mph 75% 0.00 in
13:20 69.6 °F 61.7 °F 29.86 in SSE 3.0 mph 7.0 mph 76% 0.00 in
13:25 69.4 °F 61.1 °F 29.86 in SE 3.0 mph 6.0 mph 75% 0.00 in
13:30 69.9 °F 61.2 °F 29.85 in South 4.0 mph 8.0 mph 74% 0.00 in
13:35 70.2 °F 61.9 °F 29.85 in SSW 5.0 mph 7.0 mph 75% 0.00 in
13:40 71.4 °F 63.8 °F 29.85 in SE 9.0 mph 9.0 mph 77% 0.00 in
13:45 71.2 °F 62.1 °F 29.85 in SSE 6.0 mph 10.0 mph 73% 0.00 in
13:46 71.1 °F 62.0 °F 29.85 in SE 5.0 mph 9.0 mph 73% 0.00 in
13:51 71.7 °F 61.8 °F 29.84 in SW 6.0 mph 8.0 mph 71% 0.00 in
13:56 71.6 °F 61.3 °F 29.84 in SE 8.0 mph 10.0 mph 70% 0.00 in
14:01 71.4 °F 61.5 °F 29.84 in SSE 8.0 mph 9.0 mph 71% 0.00 in
14:06 71.0 °F 60.7 °F 29.84 in SE 9.0 mph 12.0 mph 70% 0.00 in
14:11 70.7 °F 60.8 °F 29.84 in South 5.0 mph 10.0 mph 71% 0.00 in
14:16 70.8 °F 58.0 °F 29.83 in SSE 2.0 mph 9.0 mph 64% 0.00 in
14:21 71.1 °F 59.6 °F 29.83 in WSW 5.0 mph 8.0 mph 67% 0.00 in
14:26 72.2 °F 59.4 °F 29.83 in SSW 3.0 mph 8.0 mph 64% 0.00 in
14:31 72.4 °F 59.1 °F 29.83 in SSE 10.0 mph 10.0 mph 63% 0.00 in
14:36 73.1 °F 57.5 °F 29.83 in SSW 2.0 mph 9.0 mph 58% 0.00 in
14:41 73.2 °F 59.4 °F 29.82 in SSW 3.0 mph 5.0 mph 62% 0.00 in
14:46 72.3 °F 58.6 °F 29.82 in SW 8.0 mph 8.0 mph 62% 0.00 in
14:51 71.6 °F 58.8 °F 29.83 in SW 4.0 mph 10.0 mph 64% 0.00 in
14:57 72.0 °F 60.0 °F 29.82 in SW 3.0 mph 8.0 mph 66% 0.00 in
15:02 72.8 °F 59.0 °F 29.82 in SW 8.0 mph 10.0 mph 62% 0.00 in
15:07 73.0 °F 61.4 °F 29.82 in SW 5.0 mph 6.0 mph 67% 0.00 in
15:12 73.7 °F 60.8 °F 29.81 in SW 5.0 mph 9.0 mph 64% 0.00 in
15:17 73.7 °F 59.4 °F 29.81 in ESE 6.0 mph 9.0 mph 61% 0.00 in
15:22 73.2 °F 59.0 °F 29.81 in SSW 7.0 mph 10.0 mph 61% 0.00 in
15:27 73.4 °F 60.0 °F 29.81 in South 3.0 mph 8.0 mph 63% 0.00 in
15:32 73.6 °F 60.2 °F 29.81 in SSW 4.0 mph 9.0 mph 63% 0.00 in
15:37 73.7 °F 59.0 °F 29.81 in SW 5.0 mph 7.0 mph 60% 0.00 in
15:42 73.1 °F 58.9 °F 29.81 in SSE 3.0 mph 7.0 mph 61% 0.00 in
15:47 72.7 °F 59.4 °F 29.80 in SSE 3.0 mph 6.0 mph 63% 0.00 in
15:48 72.7 °F 59.4 °F 29.80 in SSE 2.0 mph 6.0 mph 63% 0.00 in
15:53 73.0 °F 59.7 °F 29.80 in SSW 3.0 mph 6.0 mph 63% 0.00 in
15:58 74.1 °F 58.9 °F 29.79 in WSW 4.0 mph 7.0 mph 59% 0.00 in
15:59 74.1 °F 58.9 °F 29.79 in WSW 2.0 mph 7.0 mph 59% 0.00 in
16:04 74.7 °F 59.4 °F 29.79 in SSE 6.0 mph 8.0 mph 59% 0.00 in
16:09 75.1 °F 59.3 °F 29.79 in SW 5.0 mph 9.0 mph 58% 0.00 in
16:14 75.1 °F 58.8 °F 29.79 in SSW 5.0 mph 10.0 mph 57% 0.00 in
16:19 74.3 °F 57.1 °F 29.78 in South 3.0 mph 6.0 mph 55% 0.00 in
16:24 74.8 °F 57.6 °F 29.78 in South 3.0 mph 7.0 mph 55% 0.00 in
16:29 75.2 °F 57.9 °F 29.78 in SSW 8.0 mph 11.0 mph 55% 0.00 in
16:34 75.3 °F 57.0 °F 29.78 in SSE 6.0 mph 8.0 mph 53% 0.00 in
16:39 75.2 °F 56.4 °F 29.77 in South 3.0 mph 9.0 mph 52% 0.00 in
16:44 75.0 °F 56.7 °F 29.77 in SE 4.0 mph 12.0 mph 53% 0.00 in
16:49 74.7 °F 58.0 °F 29.76 in SSE 8.0 mph 8.0 mph 56% 0.00 in
16:54 75.0 °F 58.8 °F 29.76 in SW 4.0 mph 7.0 mph 57% 0.00 in
16:59 75.1 °F 58.3 °F 29.76 in SSE 5.0 mph 12.0 mph 56% 0.00 in
17:04 74.6 °F 56.9 °F 29.76 in SE 4.0 mph 10.0 mph 54% 0.00 in
17:09 75.0 °F 57.8 °F 29.76 in SSE 7.0 mph 8.0 mph 55% 0.00 in
17:14 75.3 °F 59.0 °F 29.76 in SE 5.0 mph 9.0 mph 57% 0.00 in
17:19 74.6 °F 58.9 °F 29.76 in South 6.0 mph 11.0 mph 58% 0.00 in
17:24 73.7 °F 58.0 °F 29.76 in SSW 5.0 mph 11.0 mph 58% 0.00 in
17:29 73.3 °F 59.0 °F 29.76 in SE 3.0 mph 7.0 mph 61% 0.00 in
17:34 72.9 °F 59.1 °F 29.76 in SSE 4.0 mph 8.0 mph 62% 0.00 in
17:39 72.8 °F 59.0 °F 29.76 in SE 5.0 mph 6.0 mph 62% 0.00 in
17:44 73.0 °F 58.3 °F 29.76 in SSW 7.0 mph 8.0 mph 60% 0.00 in
17:49 72.9 °F 59.1 °F 29.76 in SSE 6.0 mph 6.0 mph 62% 0.00 in
17:50 72.9 °F 59.1 °F 29.76 in SSE 5.0 mph 6.0 mph 62% 0.00 in
17:55 72.5 °F 57.8 °F 29.76 in SSE 4.0 mph 8.0 mph 60% 0.00 in
17:56 72.4 °F 58.2 °F 29.76 in SSE 5.0 mph 8.0 mph 61% 0.00 in
18:01 72.3 °F 58.1 °F 29.76 in SSE 5.0 mph 8.0 mph 61% 0.00 in
18:06 72.2 °F 58.9 °F 29.76 in SSE 5.0 mph 6.0 mph 63% 0.00 in
18:11 72.1 °F 58.4 °F 29.76 in SE 3.0 mph 6.0 mph 62% 0.00 in
18:16 72.1 °F 57.9 °F 29.75 in SE 4.0 mph 6.0 mph 61% 0.00 in
18:21 72.1 °F 58.8 °F 29.75 in SE 4.0 mph 6.0 mph 63% 0.00 in
18:26 72.2 °F 58.5 °F 29.75 in SSE 4.0 mph 7.0 mph 62% 0.00 in
18:31 72.2 °F 58.5 °F 29.75 in SE 4.0 mph 5.0 mph 62% 0.00 in
18:36 72.1 °F 58.4 °F 29.75 in SE 5.0 mph 7.0 mph 62% 0.00 in
18:37 72.0 °F 58.7 °F 29.75 in SE 2.0 mph 7.0 mph 63% 0.00 in
18:42 72.0 °F 58.7 °F 29.74 in SE 5.0 mph 6.0 mph 63% 0.00 in
18:47 72.1 °F 58.4 °F 29.74 in SSE 4.0 mph 6.0 mph 62% 0.00 in
18:48 72.1 °F 58.4 °F 29.74 in SE 3.0 mph 6.0 mph 62% 0.00 in
18:53 72.1 °F 59.3 °F 29.74 in SSE 3.0 mph 6.0 mph 64% 0.00 in
18:58 72.2 °F 58.9 °F 29.74 in SE 5.0 mph 8.0 mph 63% 0.00 in
19:03 72.2 °F 59.4 °F 29.74 in SE 8.0 mph 8.0 mph 64% 0.00 in
19:08 72.0 °F 58.3 °F 29.73 in SSE 7.0 mph 7.0 mph 62% 0.00 in
19:13 71.5 °F 58.3 °F 29.73 in SE 4.0 mph 7.0 mph 63% 0.00 in
19:18 71.0 °F 58.7 °F 29.73 in SE 3.0 mph 6.0 mph 65% 0.00 in
19:23 70.7 °F 58.8 °F 29.73 in ESE 3.0 mph 4.0 mph 66% 0.00 in
19:28 70.5 °F 58.6 °F 29.73 in SE 1.0 mph 4.0 mph 66% 0.00 in
19:33 70.4 °F 58.9 °F 29.74 in SSE 4.0 mph 5.0 mph 67% 0.00 in
19:38 70.4 °F 58.5 °F 29.74 in SE 4.0 mph 6.0 mph 66% 0.00 in
19:44 70.1 °F 58.7 °F 29.74 in SE 3.0 mph 4.0 mph 67% 0.00 in
19:49 69.7 °F 58.7 °F 29.74 in SSE 4.0 mph 4.0 mph 68% 0.00 in
19:54 69.4 °F 58.4 °F 29.74 in SSE 4.0 mph 5.0 mph 68% 0.00 in
19:59 68.9 °F 58.3 °F 29.74 in SE 3.0 mph 3.0 mph 69% 0.00 in
20:04 68.4 °F 58.2 °F 29.74 in SE 2.0 mph 3.0 mph 70% 0.00 in
20:09 68.0 °F 58.3 °F 29.74 in SE 2.0 mph 3.0 mph 71% 0.00 in
20:14 67.6 °F 57.9 °F 29.74 in SE 2.0 mph 3.0 mph 71% 0.00 in
20:19 67.4 °F 57.7 °F 29.74 in SE 3.0 mph 3.0 mph 71% 0.00 in
20:24 67.3 °F 57.6 °F 29.74 in SE 3.0 mph 3.0 mph 71% 0.00 in
20:29 67.3 °F 57.6 °F 29.74 in SE 2.0 mph 3.0 mph 71% 0.00 in
20:34 67.2 °F 57.5 °F 29.75 in Calm   3.0 mph 71% 0.00 in
20:39 66.7 °F 57.4 °F 29.75 in Calm   1.0 mph 72% 0.00 in
20:44 66.5 °F 57.2 °F 29.75 in Calm   1.0 mph 72% 0.00 in
20:49 66.1 °F 57.6 °F 29.75 in Calm     74% 0.00 in
20:54 65.7 °F 57.6 °F 29.75 in Calm     75% 0.00 in
20:59 65.3 °F 57.2 °F 29.75 in Calm     75% 0.00 in
21:04 65.0 °F 56.9 °F 29.75 in Calm     75% 0.00 in
21:09 64.9 °F 57.2 °F 29.76 in Calm     76% 0.00 in
21:14 64.6 °F 56.9 °F 29.76 in Calm     76% 0.00 in
21:19 64.2 °F 56.8 °F 29.76 in Calm   1.0 mph 77% 0.00 in
21:24 64.4 °F 57.0 °F 29.76 in SE 1.0 mph 1.0 mph 77% 0.00 in
21:29 64.4 °F 57.0 °F 29.76 in SE 1.0 mph 1.0 mph 77% 0.00 in
21:34 64.3 °F 57.0 °F 29.76 in SE 1.0 mph 1.0 mph 77% 0.00 in
21:39 64.2 °F 57.2 °F 29.76 in Calm   1.0 mph 78% 0.00 in
21:44 64.3 °F 57.0 °F 29.76 in Calm   2.0 mph 77% 0.00 in
21:49 64.5 °F 57.1 °F 29.76 in WSW 1.0 mph 2.0 mph 77% 0.00 in
21:54 64.2 °F 57.2 °F 29.77 in WSW 1.0 mph 1.0 mph 78% 0.00 in
21:59 63.8 °F 57.5 °F 29.77 in Calm   1.0 mph 80% 0.00 in
22:04 63.8 °F 57.5 °F 29.77 in Calm     80% 0.00 in
22:09 63.8 °F 57.5 °F 29.77 in Calm     80% 0.00 in
22:14 63.9 °F 57.6 °F 29.77 in SE 1.0 mph 1.0 mph 80% 0.00 in
22:19 64.2 °F 57.6 °F 29.77 in SE 2.0 mph 2.0 mph 79% 0.00 in
22:25 64.5 °F 57.5 °F 29.77 in Calm   2.0 mph 78% 0.00 in
22:30 64.3 °F 57.7 °F 29.77 in Calm   1.0 mph 79% 0.00 in
22:35 63.7 °F 57.4 °F 29.77 in SW 1.0 mph 1.0 mph 80% 0.00 in
22:40 63.1 °F 57.2 °F 29.77 in SW 1.0 mph 1.0 mph 81% 0.00 in
22:45 62.7 °F 57.1 °F 29.77 in NW 3.0 mph 3.0 mph 82% 0.00 in
22:50 61.9 °F 57.0 °F 29.77 in NNW 4.0 mph 5.0 mph 84% 0.00 in
22:55 62.3 °F 57.4 °F 29.78 in West 3.0 mph 3.0 mph 84% 0.00 in
23:00 62.3 °F 57.7 °F 29.78 in NW 4.0 mph 6.0 mph 85% 0.00 in
23:05 62.5 °F 57.9 °F 29.78 in WNW 4.0 mph 5.0 mph 85% 0.00 in
23:10 62.6 °F 58.0 °F 29.78 in NW 2.0 mph 7.0 mph 85% 0.00 in
23:15 62.6 °F 58.4 °F 29.78 in NW 4.0 mph 10.0 mph 86% 0.00 in
23:20 62.6 °F 58.4 °F 29.78 in NW 2.0 mph 10.0 mph 86% 0.00 in
23:25 62.5 °F 58.6 °F 29.79 in WNW 4.0 mph 8.0 mph 87% 0.00 in
23:30 62.5 °F 58.6 °F 29.79 in NW 3.0 mph 7.0 mph 87% 0.00 in
23:31 62.5 °F 58.6 °F 29.79 in NW 4.0 mph 8.0 mph 87% 0.00 in
23:36 62.4 °F 58.5 °F 29.79 in North 4.0 mph 6.0 mph 87% 0.00 in
23:41 62.2 °F 58.3 °F 29.78 in NNW 4.0 mph 6.0 mph 87% 0.00 in
23:46 62.1 °F 58.2 °F 29.78 in North 5.0 mph 5.0 mph 87% 0.00 in
23:51 61.9 °F 58.3 °F 29.78 in NNW 3.0 mph 5.0 mph 88% 0.00 in
23:56 61.6 °F 58.0 °F 29.78 in North 1.0 mph 4.0 mph 88% 0.00 in
Compliments of Weather Underground